Alma, Georgia
Current Conditions -  °F | °C
As of 7:53 PM on Monday 20 Oct 2014 (Local Time) from KAMG Reporting Station
Broken Clouds Broken Clouds  
Wind Chill: 68°   Ceiling: 6000
Heat Index: 68°   Visibility: 10mi
Dew Point: 63°   Wind: 0mph
Humidity: 84%   Direction: NA
Pressure: 29.98"   Gusts: NA
Location:  31.54°N, 82.46°W
Report Text: KAMG 202353Z AUTO 00000KT 10SM FEW049 BKN060 BKN070 20/17 A2998 RMK AO2 SLP150 T02000172 10267 20194 53002
Loading
Personal Weather Stations






























Interactive Weather Map
Tropical Storm Tracking
New forecast layout! Learn more

10-Day Weather Forecast

Advertisements
Track Severe Weather on mobile